Time;durP1;ratioP1;P1;durP2;ratioP2;P2;SDS_P1;SDS_P2;PMS_P1;PMS_P2;Temp;Humidity;BMP_temperature;BMP_pressure;BME280_temperature;BME280_humidity;BME280_pressure;Samples;Min_cycle;Max_cycle;Signal;HPM_P1;HPM_P2
2022/03/12 00:02:26;;;;;;;11.00;8.80;;;4.10;74.90;;;;;;5048460;28;20495;-66
2022/03/12 00:04:53;;;;;;;14.00;9.97;;;4.00;74.90;;;;;;5027991;28;20460;-66
2022/03/12 00:07:20;;;;;;;13.80;9.47;;;4.00;74.70;;;;;;5030200;28;20619;-65
2022/03/12 00:09:46;;;;;;;12.07;9.00;;;3.90;75.60;;;;;;5030515;28;20475;-66
2022/03/12 00:12:17;;;;;;;13.23;9.20;;;3.80;75.80;;;;;;5034803;28;20500;-66
2022/03/12 00:14:45;;;;;;;12.80;9.00;;;3.90;75.30;;;;;;5042867;28;20945;-66
2022/03/12 00:17:12;;;;;;;11.93;8.77;;;3.90;76.40;;;;;;5031588;28;20452;-66
2022/03/12 00:19:41;;;;;;;11.10;8.50;;;3.80;75.40;;;;;;5032814;28;20978;-66
2022/03/12 00:22:09;;;;;;;12.70;9.60;;;3.80;76.00;;;;;;5040445;28;20476;-66
2022/03/12 00:24:43;;;;;;;14.57;9.80;;;3.80;76.90;;;;;;5030223;28;20824;-66
2022/03/12 00:27:10;;;;;;;12.80;9.67;;;3.80;78.20;;;;;;5028894;28;21076;-66
2022/03/12 00:29:39;;;;;;;10.87;9.00;;;3.80;77.40;;;;;;5029186;28;20459;-65
2022/03/12 00:32:07;;;;;;;9.90;8.30;;;3.80;77.30;;;;;;5028731;28;20476;-66
2022/03/12 00:34:34;;;;;;;11.17;8.20;;;3.80;78.40;;;;;;5028619;28;20452;-66
2022/03/12 00:37:01;;;;;;;15.63;9.90;;;3.90;78.50;;;;;;5029168;28;20750;-66
2022/03/12 00:39:29;;;;;;;15.60;9.40;;;3.90;79.40;;;;;;5029039;28;20444;-66
2022/03/12 00:41:56;;;;;;;16.00;9.33;;;3.90;79.20;;;;;;5029025;28;20500;-66
2022/03/12 00:44:22;;;;;;;15.87;9.33;;;4.00;78.90;;;;;;5028231;28;20929;-65
2022/03/12 00:46:51;;;;;;;10.00;8.30;;;4.00;76.60;;;;;;5031475;28;20482;-66
2022/03/12 00:49:17;;;;;;;12.73;9.10;;;4.00;77.30;;;;;;5028669;28;20449;-65
2022/03/12 00:51:45;;;;;;;11.90;9.53;;;4.00;77.70;;;;;;5034344;28;20469;-66
2022/03/12 00:54:12;;;;;;;13.47;9.40;;;4.00;77.40;;;;;;5037834;28;20492;-66
2022/03/12 00:56:39;;;;;;;11.83;8.77;;;4.00;76.80;;;;;;5028414;28;20512;-65
2022/03/12 00:59:07;;;;;;;13.50;9.40;;;3.90;75.80;;;;;;5028506;28;20452;-66
2022/03/12 01:01:34;;;;;;;12.60;8.47;;;3.90;76.50;;;;;;5028561;28;20913;-66
2022/03/12 01:04:02;;;;;;;12.77;10.43;;;3.90;75.20;;;;;;5028567;28;20445;-66
2022/03/12 01:06:29;;;;;;;12.00;9.60;;;3.90;76.40;;;;;;5028145;28;20463;-66
2022/03/12 01:08:56;;;;;;;11.83;8.60;;;3.90;77.60;;;;;;5028640;28;20604;-66
2022/03/12 01:11:23;;;;;;;10.63;8.50;;;3.90;77.20;;;;;;5027886;28;20505;-66
2022/03/12 01:13:50;;;;;;;14.17;9.23;;;3.90;77.50;;;;;;5028413;28;20544;-66
2022/03/12 01:16:18;;;;;;;12.60;8.97;;;3.80;79.30;;;;;;5047588;28;20456;-65
2022/03/12 01:18:45;;;;;;;12.03;8.70;;;3.90;78.60;;;;;;5047744;28;20460;-66
2022/03/12 01:21:16;;;;;;;12.13;8.63;;;3.90;79.50;;;;;;5046313;28;20480;-65
2022/03/12 01:23:44;;;;;;;12.90;8.30;;;3.80;78.70;;;;;;5031636;28;20452;-66
2022/03/12 01:26:12;;;;;;;13.43;8.00;;;3.90;77.30;;;;;;5027483;28;20445;-65
2022/03/12 01:28:39;;;;;;;9.33;7.83;;;3.90;78.30;;;;;;5034875;28;20483;-66
2022/03/12 01:31:06;;;;;;;13.87;8.77;;;3.90;78.40;;;;;;5047911;28;21016;-66
2022/03/12 01:33:33;;;;;;;11.67;8.50;;;4.00;78.80;;;;;;5047295;28;20444;-66
2022/03/12 01:36:00;;;;;;;12.20;8.27;;;4.00;78.60;;;;;;5034333;28;20532;-66
2022/03/12 01:38:33;;;;;;;12.37;8.87;;;4.10;78.90;;;;;;5034905;28;20539;-65
2022/03/12 01:41:02;;;;;;;12.13;9.37;;;4.10;78.80;;;;;;5028692;28;20444;-66
2022/03/12 01:43:31;;;;;;;11.60;8.70;;;4.10;77.00;;;;;;5027777;28;20455;-65
2022/03/12 01:46:00;;;;;;;13.40;8.87;;;4.10;78.50;;;;;;5028402;28;20452;-65
2022/03/12 01:48:27;;;;;;;11.23;8.00;;;4.10;77.10;;;;;;5028160;28;20504;-66
2022/03/12 01:50:54;;;;;;;11.57;9.30;;;4.10;78.60;;;;;;5033253;28;20448;-66
2022/03/12 01:53:21;;;;;;;11.07;8.30;;;4.20;78.80;;;;;;5036149;28;20462;-66
2022/03/12 01:55:50;;;;;;;11.20;8.13;;;4.10;77.60;;;;;;5027570;28;20444;-65
2022/03/12 01:58:17;;;;;;;11.90;8.07;;;4.20;76.80;;;;;;5027672;28;20490;-66
2022/03/12 02:00:45;;;;;;;11.53;9.30;;;4.10;75.10;;;;;;5027557;28;20538;-65
2022/03/12 02:03:15;;;;;;;13.43;9.00;;;4.20;76.30;;;;;;5035569;28;20842;-66
2022/03/12 02:05:43;;;;;;;13.10;8.67;;;4.20;76.90;;;;;;5047303;28;20551;-65
2022/03/12 02:08:13;;;;;;;10.87;7.73;;;4.20;75.80;;;;;;5047147;28;20877;-66
2022/03/12 02:10:40;;;;;;;11.60;8.50;;;4.20;75.60;;;;;;5046200;28;20479;-66
2022/03/12 02:13:08;;;;;;;10.23;8.80;;;4.20;76.20;;;;;;5046625;28;20555;-66
2022/03/12 02:15:35;;;;;;;9.97;8.00;;;4.30;76.70;;;;;;5046997;28;20538;-66
2022/03/12 02:18:02;;;;;;;11.10;8.70;;;4.30;76.70;;;;;;5048526;28;20459;-65
2022/03/12 02:20:29;;;;;;;10.00;7.60;;;4.20;76.20;;;;;;5049611;28;20451;-66
2022/03/12 02:22:59;;;;;;;9.27;7.67;;;4.30;76.10;;;;;;5050143;28;20483;-66
2022/03/12 02:25:29;;;;;;;13.77;9.73;;;4.30;76.00;;;;;;5050297;28;20475;-66
2022/03/12 02:27:57;;;;;;;10.87;8.20;;;4.30;77.60;;;;;;5050486;28;20490;-65
2022/03/12 02:30:28;;;;;;;11.17;8.87;;;4.40;78.10;;;;;;5050196;28;20495;-66
2022/03/12 02:32:58;;;;;;;12.90;8.20;;;4.40;76.40;;;;;;5050024;28;20467;-66
2022/03/12 02:35:26;;;;;;;10.10;9.00;;;4.40;74.90;;;;;;5050077;28;20471;-65
2022/03/12 02:37:53;;;;;;;9.90;7.50;;;4.30;74.60;;;;;;5050005;28;20444;-66
2022/03/12 02:40:21;;;;;;;9.30;8.30;;;4.40;76.60;;;;;;5049890;28;20451;-65
2022/03/12 02:42:50;;;;;;;10.27;7.83;;;4.30;76.20;;;;;;5049843;28;20464;-65
2022/03/12 02:45:25;;;;;;;9.23;8.17;;;4.40;76.30;;;;;;5049487;28;20965;-66
2022/03/12 02:47:52;;;;;;;12.37;7.70;;;4.40;75.70;;;;;;5049546;28;20890;-66
2022/03/12 02:50:19;;;;;;;12.87;8.47;;;4.40;77.30;;;;;;5049785;28;20456;-65
2022/03/12 02:52:46;;;;;;;10.10;8.50;;;4.40;76.40;;;;;;5049435;28;21306;-65
2022/03/12 02:55:16;;;;;;;12.13;8.67;;;4.30;75.40;;;;;;5049306;28;20467;-65
2022/03/12 02:57:45;;;;;;;11.17;9.07;;;4.30;76.20;;;;;;5049722;28;20449;-66
2022/03/12 03:00:15;;;;;;;11.50;9.00;;;4.30;75.30;;;;;;5049695;28;20462;-64
2022/03/12 03:02:42;;;;;;;11.13;9.00;;;4.30;77.30;;;;;;5049318;28;20512;-64
2022/03/12 03:05:30;;;;;;;9.90;7.90;;;4.30;76.20;;;;;;5049083;28;20448;-65
2022/03/12 03:07:57;;;;;;;9.87;7.83;;;4.20;75.00;;;;;;5049853;28;20578;-64
2022/03/12 03:10:33;;;;;;;11.43;7.60;;;4.20;74.20;;;;;;5049636;28;20969;-65
2022/03/12 03:13:00;;;;;;;10.90;8.10;;;4.20;76.40;;;;;;5049571;28;21003;-64
2022/03/12 03:15:28;;;;;;;11.03;7.97;;;4.20;76.30;;;;;;5051768;28;20534;-64
2022/03/12 03:17:55;;;;;;;10.57;8.67;;;4.20;75.80;;;;;;5053198;28;20530;-64
2022/03/12 03:20:22;;;;;;;14.63;8.33;;;4.10;74.90;;;;;;5053078;28;20455;-64
2022/03/12 03:22:49;;;;;;;11.67;9.10;;;4.10;75.00;;;;;;5053233;28;20550;-67
2022/03/12 03:25:16;;;;;;;10.33;8.03;;;4.10;76.00;;;;;;5052778;28;20476;-64
2022/03/12 03:27:43;;;;;;;11.83;8.60;;;4.20;74.90;;;;;;5053131;28;20480;-64
2022/03/12 03:30:11;;;;;;;9.17;8.00;;;4.20;75.20;;;;;;5052792;28;20851;-65
2022/03/12 03:32:39;;;;;;;9.03;7.50;;;4.20;76.50;;;;;;5053502;28;20473;-64
2022/03/12 03:35:06;;;;;;;10.10;8.17;;;4.20;77.80;;;;;;5053026;28;20486;-64
2022/03/12 03:37:33;;;;;;;10.13;7.90;;;4.20;76.80;;;;;;5053302;28;20479;-64
2022/03/12 03:40:01;;;;;;;14.70;9.13;;;4.20;75.40;;;;;;5053265;28;20793;-64
2022/03/12 03:42:28;;;;;;;15.50;8.93;;;4.20;76.90;;;;;;5053035;28;20464;-64
2022/03/12 03:44:59;;;;;;;11.53;8.57;;;4.20;76.90;;;;;;5052684;28;20442;-65
2022/03/12 03:47:26;;;;;;;9.53;8.07;;;4.20;76.90;;;;;;5052965;28;21145;-64
2022/03/12 03:49:55;;;;;;;11.03;8.03;;;4.10;76.80;;;;;;5052719;28;20450;-65
2022/03/12 03:52:22;;;;;;;10.50;8.50;;;4.10;78.10;;;;;;5052584;28;20468;-64
2022/03/12 03:54:49;;;;;;;11.83;8.30;;;4.20;77.30;;;;;;5052419;28;20836;-64
2022/03/12 03:57:17;;;;;;;11.40;8.37;;;4.20;77.50;;;;;;5052780;28;20479;-64
2022/03/12 03:59:44;;;;;;;11.63;8.63;;;4.20;77.20;;;;;;5052914;28;20443;-64
2022/03/12 04:02:11;;;;;;;10.73;7.80;;;4.20;77.80;;;;;;5052856;28;20551;-65
2022/03/12 04:04:38;;;;;;;11.37;7.83;;;4.20;77.20;;;;;;5052570;28;20829;-65
2022/03/12 04:07:06;;;;;;;10.00;7.80;;;4.20;75.70;;;;;;5052800;28;20505;-65
2022/03/12 04:09:33;;;;;;;12.73;8.10;;;4.10;76.10;;;;;;5052339;28;20947;-65
2022/03/12 04:12:00;;;;;;;9.83;8.20;;;4.00;77.40;;;;;;5051919;28;20504;-65
2022/03/12 04:14:27;;;;;;;13.03;8.20;;;4.00;77.10;;;;;;5051842;28;20531;-65
2022/03/12 04:16:54;;;;;;;11.00;8.23;;;3.90;76.50;;;;;;5052101;28;20444;-65
2022/03/12 04:19:21;;;;;;;11.57;8.20;;;3.90;76.20;;;;;;5051975;28;20440;-65
2022/03/12 04:21:48;;;;;;;12.77;9.20;;;3.80;77.40;;;;;;5051683;28;20471;-65
2022/03/12 04:24:16;;;;;;;13.73;8.80;;;3.70;76.20;;;;;;5051654;28;20451;-65
2022/03/12 04:26:43;;;;;;;13.43;8.10;;;3.60;76.80;;;;;;5051901;28;20494;-65
2022/03/12 04:29:11;;;;;;;9.63;8.40;;;3.50;77.50;;;;;;5051909;28;20483;-65
2022/03/12 04:31:38;;;;;;;10.50;8.10;;;3.40;77.20;;;;;;5051896;28;20464;-65
2022/03/12 04:34:05;;;;;;;11.43;8.40;;;3.30;78.60;;;;;;5051371;28;20452;-65
2022/03/12 04:36:33;;;;;;;11.83;8.73;;;3.20;79.20;;;;;;5051509;28;20455;-65
2022/03/12 04:39:00;;;;;;;13.27;8.27;;;3.10;80.90;;;;;;5051497;28;20977;-65
2022/03/12 04:41:36;;;;;;;12.43;8.80;;;3.00;80.60;;;;;;5051534;28;20471;-65
2022/03/12 04:44:04;;;;;;;12.17;8.23;;;2.90;80.50;;;;;;5051358;28;20458;-66
2022/03/12 04:46:31;;;;;;;12.77;8.90;;;2.80;79.30;;;;;;5051602;28;20483;-65
2022/03/12 04:48:57;;;;;;;10.40;8.50;;;2.80;82.50;;;;;;5051260;28;20475;-65
2022/03/12 04:51:24;;;;;;;9.17;7.47;;;2.80;81.40;;;;;;5051186;28;20479;-65
2022/03/12 04:53:56;;;;;;;8.87;7.43;;;2.70;81.60;;;;;;5051415;28;20466;-65
2022/03/12 04:56:25;;;;;;;11.73;8.37;;;2.70;82.80;;;;;;5051536;28;20447;-65
2022/03/12 04:58:55;;;;;;;11.97;8.57;;;2.60;82.10;;;;;;5051485;28;20456;-65
2022/03/12 05:01:22;;;;;;;13.23;8.83;;;2.60;82.50;;;;;;5051182;28;20467;-65
2022/03/12 05:03:49;;;;;;;11.33;8.47;;;2.70;80.80;;;;;;5050909;28;20539;-66
2022/03/12 05:06:18;;;;;;;13.50;8.60;;;2.70;81.90;;;;;;5051159;28;20544;-65
2022/03/12 05:08:45;;;;;;;11.67;9.03;;;2.80;84.90;;;;;;5050774;28;20484;-65
2022/03/12 05:11:12;;;;;;;10.80;8.57;;;3.00;81.20;;;;;;5051358;28;20581;-65
2022/03/12 05:13:39;;;;;;;13.60;8.47;;;3.10;81.40;;;;;;5051038;28;20905;-65
2022/03/12 05:16:08;;;;;;;9.43;7.73;;;3.20;81.40;;;;;;5050956;28;20458;-65
2022/03/12 05:18:38;;;;;;;10.03;8.73;;;3.30;80.90;;;;;;5050889;28;20444;-65
2022/03/12 05:21:06;;;;;;;12.73;9.27;;;3.40;80.90;;;;;;5051061;28;20835;-65
2022/03/12 05:23:33;;;;;;;17.20;10.70;;;3.50;79.20;;;;;;5051042;28;20463;-65
2022/03/12 05:26:00;;;;;;;16.77;12.27;;;3.60;79.00;;;;;;5050713;28;20618;-66
2022/03/12 05:28:32;;;;;;;14.93;11.40;;;3.70;79.60;;;;;;5051002;28;20487;-66
2022/03/12 05:31:04;;;;;;;16.00;11.03;;;3.80;79.40;;;;;;5050721;28;20961;-66
2022/03/12 05:33:32;;;;;;;16.97;11.00;;;3.80;81.10;;;;;;5050601;28;20950;-66
2022/03/12 05:35:59;;;;;;;12.67;9.00;;;3.90;78.00;;;;;;5050315;28;20530;-66
2022/03/12 05:38:30;;;;;;;20.60;12.00;;;3.90;77.90;;;;;;5049887;28;20930;-66
2022/03/12 05:40:57;;;;;;;12.83;9.87;;;3.90;80.50;;;;;;5050542;28;20447;-66
2022/03/12 05:43:24;;;;;;;12.30;8.93;;;4.00;81.00;;;;;;5050276;28;20543;-64
2022/03/12 05:45:51;;;;;;;10.17;8.00;;;4.00;79.60;;;;;;5050274;28;20451;-64
2022/03/12 05:48:19;;;;;;;11.60;8.47;;;4.00;78.60;;;;;;5050260;28;20444;-65
2022/03/12 05:50:49;;;;;;;12.40;9.87;;;4.00;81.30;;;;;;5050294;28;20444;-64
2022/03/12 05:53:17;;;;;;;11.93;9.63;;;4.00;81.60;;;;;;5050152;28;20458;-65
2022/03/12 05:55:44;;;;;;;11.57;8.73;;;4.10;83.30;;;;;;5050070;28;20506;-65
2022/03/12 05:58:14;;;;;;;13.00;8.80;;;4.00;80.70;;;;;;5050118;28;20529;-65
2022/03/12 06:00:41;;;;;;;11.03;9.33;;;3.90;79.80;;;;;;5050471;28;20836;-65
2022/03/12 06:03:10;;;;;;;14.30;9.60;;;3.90;80.70;;;;;;5050031;28;20472;-65
2022/03/12 06:05:43;;;;;;;12.97;9.10;;;3.80;80.60;;;;;;5049343;28;20459;-65
2022/03/12 06:08:21;;;;;;;12.43;8.83;;;3.80;80.10;;;;;;5049733;28;20451;-65
2022/03/12 06:10:51;;;;;;;12.13;8.40;;;3.70;78.90;;;;;;5049753;28;21125;-65
2022/03/12 06:13:18;;;;;;;12.47;8.83;;;3.70;79.60;;;;;;5049769;28;20543;-65
2022/03/12 06:15:58;;;;;;;11.03;8.83;;;3.60;79.60;;;;;;5049195;28;21003;-65
2022/03/12 06:18:26;;;;;;;10.47;8.47;;;3.60;81.20;;;;;;5049574;28;20440;-65
2022/03/12 06:20:53;;;;;;;12.57;9.30;;;3.60;82.20;;;;;;5049274;28;20475;-65
2022/03/12 06:23:21;;;;;;;12.20;8.47;;;3.60;83.10;;;;;;5049707;28;20515;-66
2022/03/12 06:25:48;;;;;;;11.20;8.87;;;3.70;84.10;;;;;;5049317;28;20531;-66
2022/03/12 06:28:16;;;;;;;10.90;8.90;;;3.60;81.80;;;;;;5049485;28;21045;-66
2022/03/12 06:30:42;;;;;;;11.30;9.00;;;3.70;81.20;;;;;;5049347;28;20992;-66
2022/03/12 06:33:10;;;;;;;12.60;9.20;;;3.70;82.70;;;;;;5049613;28;20861;-66
2022/03/12 06:35:37;;;;;;;12.97;9.00;;;3.80;82.00;;;;;;5048978;28;20487;-66
2022/03/12 06:38:04;;;;;;;10.67;8.57;;;3.90;81.90;;;;;;5049588;28;20476;-66
2022/03/12 06:40:32;;;;;;;12.50;9.33;;;3.90;80.70;;;;;;5049318;28;20474;-66
2022/03/12 06:43:00;;;;;;;9.97;8.33;;;4.00;81.60;;;;;;5049319;28;20468;-66
2022/03/12 06:45:28;;;;;;;12.03;8.67;;;4.20;80.20;;;;;;5049060;28;20502;-66
2022/03/12 06:47:56;;;;;;;11.30;8.23;;;4.30;80.50;;;;;;5049352;28;20448;-66
2022/03/12 06:50:25;;;;;;;11.33;8.40;;;4.40;78.90;;;;;;5053532;28;20879;-66
2022/03/12 06:52:52;;;;;;;10.60;8.80;;;4.60;80.50;;;;;;5053199;28;20468;-66
2022/03/12 06:55:21;;;;;;;11.10;9.47;;;4.60;78.90;;;;;;5052808;28;20440;-66
2022/03/12 06:57:51;;;;;;;15.90;10.03;;;4.70;77.10;;;;;;5053045;28;20542;-66
2022/03/12 07:00:22;;;;;;;13.40;9.20;;;4.80;77.90;;;;;;5053486;28;20440;-66
2022/03/12 07:02:49;;;;;;;12.00;9.13;;;4.80;77.20;;;;;;5052751;28;20851;-66
2022/03/12 07:05:16;;;;;;;11.03;8.50;;;4.90;77.00;;;;;;5052733;28;20440;-66
2022/03/12 07:07:43;;;;;;;11.50;8.10;;;5.00;77.80;;;;;;5052889;28;20444;-66
2022/03/12 07:10:11;;;;;;;12.73;8.50;;;5.10;77.90;;;;;;5052982;28;21072;-66
2022/03/12 07:12:40;;;;;;;14.00;10.40;;;5.10;77.00;;;;;;5053966;28;21001;-66
2022/03/12 07:15:09;;;;;;;10.20;8.40;;;5.20;75.00;;;;;;5053504;28;21235;-66
2022/03/12 07:17:36;;;;;;;12.37;7.47;;;5.20;74.00;;;;;;5053564;28;20930;-66
2022/03/12 07:20:03;;;;;;;10.83;8.70;;;5.30;75.00;;;;;;5053509;28;20451;-66
2022/03/12 07:22:30;;;;;;;12.07;8.87;;;5.30;75.80;;;;;;5052741;28;20503;-66
2022/03/12 07:24:57;;;;;;;9.40;7.97;;;5.40;75.30;;;;;;5052269;28;20456;-66
2022/03/12 07:27:25;;;;;;;10.63;8.10;;;5.40;75.90;;;;;;5052764;28;20555;-66
2022/03/12 07:29:51;;;;;;;11.93;9.20;;;5.50;74.80;;;;;;5052310;28;21302;-66
2022/03/12 07:32:20;;;;;;;12.60;8.67;;;5.50;74.20;;;;;;5052466;28;20478;-66
2022/03/12 07:34:48;;;;;;;13.23;9.27;;;5.60;74.00;;;;;;5052021;28;20457;-66
2022/03/12 07:37:15;;;;;;;14.53;9.20;;;5.70;74.40;;;;;;5052402;28;20483;-66
2022/03/12 07:39:42;;;;;;;14.70;8.77;;;5.80;74.20;;;;;;5052122;28;20446;-66
2022/03/12 07:42:09;;;;;;;10.93;8.53;;;5.90;73.20;;;;;;5052154;28;20467;-64
2022/03/12 07:44:36;;;;;;;11.83;9.37;;;6.00;73.70;;;;;;5052167;28;20448;-65
2022/03/12 07:47:02;;;;;;;10.80;8.90;;;6.10;73.40;;;;;;5052273;28;20539;-65
2022/03/12 07:49:31;;;;;;;11.37;9.23;;;6.20;73.00;;;;;;5051949;28;20471;-65
2022/03/12 07:51:58;;;;;;;11.83;8.70;;;6.30;71.20;;;;;;5051384;28;20533;-65
2022/03/12 07:54:25;;;;;;;12.03;9.03;;;6.40;70.60;;;;;;5051444;28;20451;-65
2022/03/12 07:56:52;;;;;;;13.00;9.43;;;6.50;71.00;;;;;;5051764;28;20725;-65
2022/03/12 07:59:19;;;;;;;12.87;10.30;;;6.50;70.30;;;;;;5052196;28;20440;-66
2022/03/12 08:01:47;;;;;;;11.57;9.80;;;6.60;69.70;;;;;;5050785;28;20472;-65
2022/03/12 08:04:14;;;;;;;13.30;9.80;;;6.60;70.60;;;;;;5052700;28;20483;-66
2022/03/12 08:06:43;;;;;;;10.97;8.80;;;6.60;71.20;;;;;;5062061;28;20470;-63
2022/03/12 08:09:11;;;;;;;13.00;10.07;;;6.70;69.90;;;;;;5047729;28;20529;-64
2022/03/12 08:11:38;;;;;;;10.80;8.83;;;6.80;69.20;;;;;;5052668;28;20654;-64
2022/03/12 08:14:08;;;;;;;12.07;8.70;;;7.00;70.00;;;;;;5050897;28;20539;-64
2022/03/12 08:16:37;;;;;;;12.87;9.40;;;7.20;70.20;;;;;;5055324;28;20541;-65
2022/03/12 08:19:05;;;;;;;12.70;10.93;;;7.30;69.00;;;;;;5053156;28;20448;-65
2022/03/12 08:21:32;;;;;;;11.30;8.67;;;7.40;69.10;;;;;;5053133;28;20943;-68
2022/03/12 08:24:01;;;;;;;12.00;9.60;;;7.50;68.30;;;;;;5050722;28;20440;-68
2022/03/12 08:26:29;;;;;;;14.10;10.30;;;7.70;66.90;;;;;;5051161;28;20452;-66
2022/03/12 08:28:56;;;;;;;13.37;10.67;;;7.90;66.30;;;;;;5051172;28;20444;-64
2022/03/12 08:31:23;;;;;;;12.33;10.20;;;8.00;67.10;;;;;;5060183;28;20563;-64
2022/03/12 08:33:50;;;;;;;14.50;9.73;;;8.20;65.80;;;;;;5052438;28;20444;-64
2022/03/12 08:36:18;;;;;;;12.30;9.37;;;8.20;65.30;;;;;;5052709;28;20460;-64
2022/03/12 08:38:45;;;;;;;18.27;9.90;;;8.50;66.30;;;;;;5054846;28;20464;-65
2022/03/12 08:41:13;;;;;;;15.70;11.30;;;8.50;64.50;;;;;;5052767;28;20989;-65
2022/03/12 08:43:40;;;;;;;15.90;9.70;;;8.80;65.00;;;;;;5049640;28;20448;-65
2022/03/12 08:46:08;;;;;;;13.43;10.40;;;9.10;63.40;;;;;;5052220;28;20451;-65
2022/03/12 08:48:36;;;;;;;12.30;9.70;;;9.30;63.90;;;;;;5055281;28;20493;-67
2022/03/12 08:51:04;;;;;;;13.97;10.87;;;9.50;63.80;;;;;;5050227;28;20494;-66
2022/03/12 08:53:31;;;;;;;11.63;9.53;;;9.70;61.70;;;;;;5053632;28;20491;-66
2022/03/12 08:56:00;;;;;;;13.50;9.90;;;10.00;58.80;;;;;;5051280;28;20474;-66
2022/03/12 08:58:29;;;;;;;12.73;11.10;;;10.20;59.40;;;;;;5052225;28;21153;-66
2022/03/12 09:00:57;;;;;;;14.90;10.20;;;10.30;58.90;;;;;;5051261;28;20463;-66
2022/03/12 09:03:25;;;;;;;14.30;10.70;;;10.50;59.30;;;;;;5049732;28;20526;-66
2022/03/12 09:05:52;;;;;;;15.80;11.00;;;10.60;58.80;;;;;;5050589;28;20937;-66
2022/03/12 09:08:20;;;;;;;13.50;10.37;;;10.70;58.10;;;;;;5050596;28;20536;-66
2022/03/12 09:10:47;;;;;;;14.80;11.40;;;11.10;58.80;;;;;;5050615;28;20484;-66
2022/03/12 09:13:18;;;;;;;14.50;11.70;;;11.40;58.10;;;;;;5049302;28;20559;-67
2022/03/12 09:15:46;;;;;;;12.93;11.10;;;11.80;57.50;;;;;;5050271;28;20536;-67
2022/03/12 09:18:15;;;;;;;12.73;11.13;;;11.90;56.60;;;;;;5050293;28;20452;-67
2022/03/12 09:20:47;;;;;;;13.27;10.17;;;12.40;55.60;;;;;;5050583;28;20479;-66
2022/03/12 09:23:15;;;;;;;12.60;11.20;;;12.70;55.40;;;;;;5050477;28;20915;-67
2022/03/12 09:25:43;;;;;;;14.83;12.13;;;13.00;54.60;;;;;;5049974;28;20483;-67
2022/03/12 09:28:09;;;;;;;13.73;12.33;;;13.20;54.60;;;;;;5050369;28;20452;-67
2022/03/12 09:30:37;;;;;;;12.27;10.97;;;13.60;54.40;;;;;;5049923;28;20490;-66
2022/03/12 09:33:06;;;;;;;15.40;12.10;;;13.80;52.50;;;;;;5050178;28;20542;-66
2022/03/12 09:35:33;;;;;;;15.00;12.43;;;14.00;53.10;;;;;;5049646;28;20455;-67
2022/03/12 09:38:01;;;;;;;14.00;12.50;;;14.10;53.30;;;;;;5050355;28;20444;-67
2022/03/12 09:40:29;;;;;;;15.93;13.93;;;14.00;53.40;;;;;;5050096;28;20444;-66
2022/03/12 09:42:56;;;;;;;14.77;13.03;;;14.00;53.40;;;;;;5049873;28;21001;-66
2022/03/12 09:45:24;;;;;;;18.17;13.90;;;14.10;53.20;;;;;;5049803;28;21004;-66
2022/03/12 09:47:51;;;;;;;15.67;13.50;;;14.20;52.40;;;;;;5050026;28;20478;-66
2022/03/12 09:50:19;;;;;;;17.10;14.40;;;14.30;52.50;;;;;;5050057;28;20480;-67
2022/03/12 09:52:46;;;;;;;17.63;14.37;;;14.70;52.10;;;;;;5049696;28;20858;-67
2022/03/12 09:55:14;;;;;;;19.43;15.40;;;14.40;52.10;;;;;;5046473;28;20456;-67
2022/03/12 09:57:41;;;;;;;17.13;15.03;;;14.60;52.20;;;;;;5041280;28;20558;-67
2022/03/12 10:00:11;;;;;;;18.60;15.50;;;14.80;52.70;;;;;;5044081;28;20547;-67
2022/03/12 10:02:37;;;;;;;17.43;14.03;;;14.80;51.70;;;;;;5049445;28;20483;-67
2022/03/12 10:05:05;;;;;;;17.30;15.03;;;15.00;51.50;;;;;;5049136;28;20447;-65
2022/03/12 10:07:34;;;;;;;18.20;15.00;;;15.20;52.30;;;;;;5040772;28;20554;-66
2022/03/12 10:10:00;;;;;;;17.93;15.27;;;15.40;51.80;;;;;;5048663;28;20472;-67
2022/03/12 10:12:27;;;;;;;17.47;15.60;;;15.80;50.70;;;;;;5046199;28;20467;-67
2022/03/12 10:14:54;;;;;;;16.47;14.40;;;16.10;50.80;;;;;;5040340;28;20541;-67
2022/03/12 10:17:21;;;;;;;17.83;14.63;;;16.30;50.20;;;;;;5049833;28;20527;-67
2022/03/12 10:19:48;;;;;;;17.47;15.20;;;16.70;50.80;;;;;;5049439;28;20958;-66
2022/03/12 10:22:16;;;;;;;18.20;14.40;;;16.50;48.50;;;;;;5049577;28;20970;-66
2022/03/12 10:24:44;;;;;;;16.23;13.97;;;16.60;49.90;;;;;;5050608;28;21977;-69
2022/03/12 10:27:11;;;;;;;17.50;15.17;;;17.00;49.10;;;;;;5047096;28;20554;-67
2022/03/12 10:29:38;;;;;;;17.20;13.83;;;17.30;49.60;;;;;;5045546;28;20546;-67
2022/03/12 10:32:23;;;;;;;20.13;15.47;;;17.30;49.10;;;;;;5051796;28;20541;-67
2022/03/12 10:34:52;;;;;;;18.23;16.33;;;17.50;48.90;;;;;;5052671;28;20451;-67
2022/03/12 10:37:20;;;;;;;16.73;15.17;;;17.40;48.50;;;;;;5050375;28;20559;-67
2022/03/12 10:39:50;;;;;;;20.13;16.30;;;17.80;49.00;;;;;;5045266;28;20464;-67
2022/03/12 10:42:17;;;;;;;17.00;15.20;;;18.10;48.30;;;;;;5043515;28;20554;-65
2022/03/12 10:44:44;;;;;;;16.13;14.23;;;18.20;47.80;;;;;;5047901;28;20958;-66
2022/03/12 10:47:17;;;;;;;15.67;14.07;;;18.40;48.00;;;;;;5053277;28;20452;-65
2022/03/12 10:49:57;;;;;;;17.13;15.30;;;18.80;48.90;;;;;;5053341;28;20447;-66
2022/03/12 10:52:27;;;;;;;15.10;13.50;;;18.60;48.70;;;;;;5052491;28;20455;-66
2022/03/12 10:54:55;;;;;;;15.43;13.73;;;18.60;50.10;;;;;;5046065;28;20467;-66
2022/03/12 10:57:22;;;;;;;17.43;14.07;;;19.00;49.70;;;;;;5041254;28;20519;-66
2022/03/12 10:59:53;;;;;;;17.47;15.67;;;19.30;49.10;;;;;;5044464;28;20487;-66
2022/03/12 11:02:20;;;;;;;15.47;13.30;;;19.20;48.30;;;;;;5047256;28;20520;-66
2022/03/12 11:04:47;;;;;;;16.50;14.57;;;19.70;48.70;;;;;;5045226;28;20445;-66
2022/03/12 11:07:25;;;;;;;14.93;13.47;;;20.00;48.20;;;;;;5043567;28;20450;-67
2022/03/12 11:09:53;;;;;;;14.67;13.10;;;20.00;50.00;;;;;;5041386;28;20447;-67
2022/03/12 11:12:30;;;;;;;19.87;16.00;;;20.50;48.30;;;;;;5041833;28;20501;-68
2022/03/12 11:15:03;;;;;;;16.33;14.63;;;20.10;46.00;;;;;;5036845;28;20513;-68
2022/03/12 11:17:30;;;;;;;14.50;13.00;;;19.30;47.20;;;;;;5044574;28;20475;-66
2022/03/12 11:19:57;;;;;;;14.90;13.20;;;19.10;48.00;;;;;;5043347;28;20535;-66
2022/03/12 11:22:24;;;;;;;15.10;13.60;;;19.20;49.00;;;;;;5046823;28;20476;-64
2022/03/12 11:24:54;;;;;;;15.07;13.20;;;19.40;48.70;;;;;;5041328;28;20829;-66
2022/03/12 11:27:33;;;;;;;17.43;14.03;;;20.00;49.10;;;;;;5043827;28;20502;-66
2022/03/12 11:30:02;;;;;;;15.10;13.03;;;20.20;48.90;;;;;;5031731;28;20440;-66
2022/03/12 11:32:34;;;;;;;15.60;14.00;;;19.80;49.10;;;;;;5039433;28;20495;-66
2022/03/12 11:35:10;;;;;;;14.37;12.40;;;18.70;49.30;;;;;;5033284;28;21903;-65
2022/03/12 11:37:38;;;;;;;12.47;11.23;;;18.20;52.30;;;;;;5028322;28;20877;-65
2022/03/12 11:40:09;;;;;;;14.63;13.10;;;18.50;52.50;;;;;;5032087;28;20925;-65
2022/03/12 11:42:39;;;;;;;14.60;11.73;;;19.10;52.60;;;;;;5037910;28;20993;-65
2022/03/12 11:45:11;;;;;;;15.30;12.63;;;19.40;52.00;;;;;;5030557;28;20441;-66
2022/03/12 11:47:40;;;;;;;15.27;12.83;;;19.60;50.00;;;;;;5042365;28;20448;-66
2022/03/12 11:50:16;;;;;;;15.13;13.63;;;19.20;50.90;;;;;;5044917;28;20472;-66
2022/03/12 11:52:43;;;;;;;17.57;13.77;;;19.60;52.40;;;;;;5048091;28;20486;-64
2022/03/12 11:55:18;;;;;;;16.47;14.10;;;20.40;50.30;;;;;;5042187;28;20457;-65
2022/03/12 11:57:48;;;;;;;18.00;14.50;;;20.70;49.90;;;;;;5045687;28;20440;-65
2022/03/12 12:00:23;;;;;;;15.70;13.23;;;21.40;49.30;;;;;;5050114;28;20473;-65
2022/03/12 12:02:51;;;;;;;12.07;10.87;;;21.70;48.70;;;;;;5051537;28;20562;-65
2022/03/12 12:05:19;;;;;;;12.57;10.40;;;21.20;50.20;;;;;;5051396;28;20938;-65
2022/03/12 12:07:48;;;;;;;12.23;11.03;;;20.50;51.60;;;;;;5051884;28;20968;-65
2022/03/12 12:10:17;;;;;;;14.50;10.50;;;20.40;52.60;;;;;;5051031;28;20454;-66
2022/03/12 12:12:46;;;;;;;11.83;9.97;;;21.40;52.10;;;;;;5045442;28;20470;-65
2022/03/12 12:15:17;;;;;;;12.17;9.40;;;22.50;51.60;;;;;;5046567;28;20843;-66
2022/03/12 12:17:45;;;;;;;9.73;8.67;;;23.30;50.40;;;;;;5044810;28;20444;-66
2022/03/12 12:20:15;;;;;;;12.50;9.67;;;23.10;50.30;;;;;;5045939;28;20450;-65
2022/03/12 12:22:42;;;;;;;10.43;9.33;;;23.00;50.30;;;;;;5047074;28;20464;-65
2022/03/12 12:25:10;;;;;;;10.47;9.47;;;21.90;51.00;;;;;;5033528;28;20483;-66
2022/03/12 12:27:44;;;;;;;10.87;9.50;;;21.90;50.70;;;;;;5036371;28;20571;-66
2022/03/12 12:30:18;;;;;;;9.50;6.97;;;22.70;51.60;;;;;;5040227;28;20966;-66
2022/03/12 12:32:47;;;;;;;10.00;7.17;;;23.30;50.50;;;;;;5042574;28;20475;-66
2022/03/12 12:35:17;;;;;;;10.30;7.33;;;22.10;51.70;;;;;;5036880;28;20856;-66
2022/03/12 12:37:57;;;;;;;11.50;7.37;;;22.10;52.00;;;;;;5042526;28;20543;-67
2022/03/12 12:40:26;;;;;;;8.57;7.67;;;22.50;52.20;;;;;;5043423;28;20463;-66
2022/03/12 12:42:56;;;;;;;10.23;9.23;;;23.00;50.40;;;;;;5041660;28;20475;-66
2022/03/12 12:45:26;;;;;;;9.13;8.17;;;21.80;50.00;;;;;;5039243;28;20468;-67
2022/03/12 12:48:14;;;;;;;12.33;8.40;;;22.10;51.90;;;;;;5039725;28;20542;-65